Time;durP1;ratioP1;P1;durP2;ratioP2;P2;SDS_P1;SDS_P2;PMS_P1;PMS_P2;Temp;Humidity;BMP_temperature;BMP_pressure;BME280_temperature;BME280_humidity;BME280_pressure;Samples;Min_cycle;Max_cycle;Signal;HPM_P1;HPM_P2
2023/12/30 00:00:22;;;;;;;3.47;1.98;;;9.10;55.80;;;;;;4851877;28;114712;-82
2023/12/30 00:02:50;;;;;;;3.58;1.70;;;9.10;55.90;;;;;;4867880;28;115041;-81
2023/12/30 00:05:18;;;;;;;4.00;1.77;;;9.10;55.80;;;;;;4854716;28;115784;-82
2023/12/30 00:07:45;;;;;;;2.97;1.70;;;9.10;55.70;;;;;;4855021;28;114498;-81
2023/12/30 00:10:13;;;;;;;3.17;1.77;;;9.20;55.70;;;;;;4887475;28;114390;-82
2023/12/30 00:12:40;;;;;;;3.58;1.90;;;9.20;55.80;;;;;;4869842;28;115075;-83
2023/12/30 00:15:10;;;;;;;3.53;1.88;;;9.20;55.80;;;;;;4870220;28;115218;-81
2023/12/30 00:17:40;;;;;;;3.13;1.90;;;9.20;56.00;;;;;;4870600;28;114638;-82
2023/12/30 00:20:08;;;;;;;3.00;1.80;;;9.20;56.10;;;;;;4871028;28;114828;-82
2023/12/30 00:22:36;;;;;;;3.45;1.90;;;9.20;56.10;;;;;;4886375;28;115199;-82
2023/12/30 00:25:04;;;;;;;3.38;1.90;;;9.20;56.10;;;;;;4869582;28;114706;-82
2023/12/30 00:27:31;;;;;;;4.18;2.40;;;9.20;56.10;;;;;;4855183;28;114401;-82
2023/12/30 00:30:00;;;;;;;3.33;2.08;;;9.20;56.20;;;;;;4855201;28;114607;-82
2023/12/30 00:32:27;;;;;;;3.00;1.60;;;9.10;56.20;;;;;;4869893;28;115084;-81
2023/12/30 00:34:55;;;;;;;2.75;1.70;;;9.10;56.40;;;;;;4886534;28;115468;-81
2023/12/30 00:37:22;;;;;;;3.58;2.08;;;9.10;56.50;;;;;;4870559;28;114774;-81
2023/12/30 00:39:50;;;;;;;3.55;2.05;;;9.10;56.70;;;;;;4853339;28;114943;-80
2023/12/30 00:42:19;;;;;;;3.40;1.90;;;9.00;56.70;;;;;;4838329;28;115136;-82
2023/12/30 00:44:46;;;;;;;3.33;2.10;;;9.00;56.80;;;;;;4886222;28;114632;-81
2023/12/30 00:47:14;;;;;;;3.97;2.10;;;9.00;56.90;;;;;;4854086;28;114624;-81
2023/12/30 00:49:41;;;;;;;4.43;1.95;;;9.00;57.00;;;;;;4854677;28;114316;-81
2023/12/30 00:52:10;;;;;;;3.88;2.05;;;9.00;57.00;;;;;;4869164;28;115763;-81
2023/12/30 00:54:38;;;;;;;5.63;2.40;;;9.00;57.10;;;;;;4886098;28;114849;-81
2023/12/30 00:57:17;;;;;;;3.95;2.35;;;9.00;57.20;;;;;;4903353;28;114248;-81
2023/12/30 00:59:45;;;;;;;3.45;2.00;;;9.00;57.30;;;;;;4870662;28;114956;-81
2023/12/30 01:02:12;;;;;;;3.40;2.13;;;8.90;57.20;;;;;;4870042;28;115155;-80
2023/12/30 01:04:39;;;;;;;4.40;2.22;;;8.90;57.20;;;;;;4838269;28;117394;-80
2023/12/30 01:07:09;;;;;;;3.30;1.95;;;8.90;57.20;;;;;;4870484;28;114671;-80
2023/12/30 01:09:37;;;;;;;2.97;1.80;;;9.00;57.30;;;;;;4886232;28;114709;-81
2023/12/30 01:12:05;;;;;;;3.45;2.05;;;9.00;57.20;;;;;;4868147;28;115161;-82
2023/12/30 01:14:33;;;;;;;2.85;1.73;;;8.90;57.20;;;;;;4886021;28;115080;-82
2023/12/30 01:17:00;;;;;;;4.22;1.80;;;8.90;57.20;;;;;;4838615;28;114857;-82
2023/12/30 01:19:28;;;;;;;3.88;1.85;;;9.00;57.20;;;;;;4869800;28;114441;-82
2023/12/30 01:21:56;;;;;;;3.85;1.90;;;8.90;57.20;;;;;;4884812;28;114975;-81
2023/12/30 01:24:26;;;;;;;3.20;2.10;;;8.90;57.20;;;;;;4868442;28;115029;-82
2023/12/30 01:26:53;;;;;;;3.05;1.75;;;8.90;57.30;;;;;;4869141;28;114675;-81
2023/12/30 01:29:20;;;;;;;3.88;2.15;;;9.00;57.20;;;;;;4869729;28;114606;-81
2023/12/30 01:31:47;;;;;;;3.17;1.88;;;8.90;57.30;;;;;;4868419;28;115028;-81
2023/12/30 01:34:15;;;;;;;4.68;2.10;;;8.90;57.20;;;;;;4852609;28;115892;-81
2023/12/30 01:36:43;;;;;;;3.35;2.00;;;8.90;57.30;;;;;;4868522;28;115367;-81
2023/12/30 01:39:10;;;;;;;2.95;1.80;;;8.90;57.20;;;;;;4853113;28;114915;-81
2023/12/30 01:41:37;;;;;;;2.95;1.60;;;8.90;57.20;;;;;;4868352;28;115125;-81
2023/12/30 01:44:05;;;;;;;3.88;2.35;;;8.90;57.20;;;;;;4868260;28;115110;-81
2023/12/30 01:46:32;;;;;;;2.65;1.92;;;8.80;57.20;;;;;;4869138;28;114371;-81
2023/12/30 01:49:00;;;;;;;3.53;2.03;;;8.80;57.20;;;;;;4853057;28;114772;-81
2023/12/30 01:51:27;;;;;;;4.38;2.08;;;8.80;57.30;;;;;;4868155;28;115090;-81
2023/12/30 01:53:55;;;;;;;3.63;2.08;;;8.80;57.30;;;;;;4852954;28;115532;-81
2023/12/30 01:56:23;;;;;;;4.10;2.30;;;8.80;57.40;;;;;;4853794;28;114398;-81
2023/12/30 01:58:51;;;;;;;3.03;2.05;;;8.80;57.30;;;;;;4869029;28;114604;-81
2023/12/30 02:01:18;;;;;;;3.22;1.83;;;8.80;57.40;;;;;;4867715;28;116138;-81
2023/12/30 02:03:46;;;;;;;3.30;1.98;;;8.70;57.30;;;;;;4868453;28;115536;-81
2023/12/30 02:06:13;;;;;;;3.65;1.85;;;8.80;57.30;;;;;;4837993;28;114662;-81
2023/12/30 02:08:43;;;;;;;3.25;2.13;;;8.70;57.40;;;;;;4885770;28;114604;-81
2023/12/30 02:11:11;;;;;;;4.50;2.10;;;8.70;57.40;;;;;;4852142;28;117801;-81
2023/12/30 02:13:42;;;;;;;3.58;1.83;;;8.70;57.30;;;;;;4867717;28;115724;-81
2023/12/30 02:16:11;;;;;;;3.75;2.03;;;8.70;57.30;;;;;;4884365;28;114749;-80
2023/12/30 02:18:38;;;;;;;3.42;1.98;;;8.70;57.30;;;;;;4869265;28;114580;-81
2023/12/30 02:21:06;;;;;;;3.45;1.80;;;8.70;57.30;;;;;;4868174;28;115112;-81
2023/12/30 02:23:33;;;;;;;3.55;2.00;;;8.70;57.30;;;;;;4867785;28;114636;-81
2023/12/30 02:26:07;;;;;;;4.40;2.17;;;8.70;57.40;;;;;;4867763;28;114600;-81
2023/12/30 02:28:34;;;;;;;3.03;1.70;;;8.70;57.40;;;;;;4837817;28;114534;-82
2023/12/30 02:31:03;;;;;;;3.40;1.92;;;8.60;57.30;;;;;;4867413;28;115149;-81
2023/12/30 02:33:31;;;;;;;3.25;1.98;;;8.60;57.30;;;;;;4882918;28;115246;-81
2023/12/30 02:35:58;;;;;;;3.17;1.80;;;8.50;57.30;;;;;;4885460;28;114461;-81
2023/12/30 02:38:26;;;;;;;3.33;1.88;;;8.60;57.40;;;;;;4887188;28;114806;-80
2023/12/30 02:40:53;;;;;;;4.45;2.38;;;8.50;57.40;;;;;;4882170;28;114527;-82
2023/12/30 02:43:20;;;;;;;3.15;1.55;;;8.50;57.40;;;;;;4878353;28;115184;-82
2023/12/30 02:45:48;;;;;;;3.40;1.90;;;8.50;57.40;;;;;;4842860;28;115096;-82
2023/12/30 02:48:15;;;;;;;3.75;1.90;;;8.50;57.40;;;;;;4834219;28;114824;-82
2023/12/30 02:50:42;;;;;;;3.20;1.65;;;8.50;57.40;;;;;;4833206;28;115613;-81
2023/12/30 02:53:10;;;;;;;4.03;2.20;;;8.50;57.20;;;;;;4865660;28;115042;-81
2023/12/30 02:55:37;;;;;;;5.03;1.92;;;8.50;57.20;;;;;;4866553;28;114677;-81
2023/12/30 02:58:04;;;;;;;4.53;1.90;;;8.50;57.20;;;;;;4866403;28;114647;-81
2023/12/30 03:00:32;;;;;;;3.47;1.85;;;8.50;57.10;;;;;;4848590;28;115184;-81
2023/12/30 03:02:59;;;;;;;2.83;1.60;;;8.40;57.00;;;;;;4850224;28;114599;-81
2023/12/30 03:05:27;;;;;;;3.38;1.60;;;8.50;57.00;;;;;;4868862;28;114845;-81
2023/12/30 03:07:57;;;;;;;3.08;1.70;;;8.40;56.80;;;;;;4853245;28;114761;-82
2023/12/30 03:10:25;;;;;;;2.80;1.60;;;8.40;56.70;;;;;;4851715;28;115256;-82
2023/12/30 03:12:52;;;;;;;3.45;1.70;;;8.40;56.50;;;;;;4868396;28;114575;-81
2023/12/30 03:15:21;;;;;;;2.30;1.40;;;8.40;56.50;;;;;;4835563;28;114498;-81
2023/12/30 03:17:49;;;;;;;3.63;1.63;;;8.40;56.40;;;;;;4852108;28;114490;-82
2023/12/30 03:20:16;;;;;;;3.20;1.80;;;8.40;56.20;;;;;;4851458;28;114819;-82
2023/12/30 03:22:45;;;;;;;3.05;1.88;;;8.40;56.20;;;;;;4851085;28;116052;-81
2023/12/30 03:25:12;;;;;;;2.90;1.60;;;8.40;56.20;;;;;;4869105;28;114338;-81
2023/12/30 03:27:39;;;;;;;3.47;1.38;;;8.40;55.90;;;;;;4852244;28;114457;-81
2023/12/30 03:30:07;;;;;;;2.92;1.70;;;8.40;55.80;;;;;;4867231;28;115802;-82
2023/12/30 03:32:35;;;;;;;5.00;1.70;;;8.40;55.70;;;;;;4851309;28;117707;-82
2023/12/30 03:35:03;;;;;;;3.20;1.70;;;8.40;55.70;;;;;;4869051;28;114520;-82
2023/12/30 03:37:30;;;;;;;4.72;1.65;;;8.40;55.70;;;;;;4852053;28;114392;-81
2023/12/30 03:39:58;;;;;;;3.35;1.67;;;8.50;55.80;;;;;;4869491;28;115115;-81
2023/12/30 03:42:27;;;;;;;2.80;1.65;;;8.40;55.80;;;;;;4854484;28;115293;-81
2023/12/30 03:44:54;;;;;;;3.25;1.60;;;8.50;55.80;;;;;;4870875;28;114653;-82
2023/12/30 03:47:24;;;;;;;2.78;1.70;;;8.40;55.70;;;;;;4887795;28;114682;-81
2023/12/30 03:49:51;;;;;;;3.10;1.65;;;8.50;55.70;;;;;;4877508;28;115390;-81
2023/12/30 03:52:18;;;;;;;3.80;1.77;;;8.50;55.80;;;;;;4893297;28;114600;-82
2023/12/30 03:54:46;;;;;;;2.63;1.50;;;8.50;55.80;;;;;;4855025;28;114965;-81
2023/12/30 03:57:13;;;;;;;2.53;1.38;;;8.50;55.80;;;;;;4871315;28;114432;-82
2023/12/30 03:59:41;;;;;;;3.15;1.95;;;8.50;55.80;;;;;;4869937;28;115323;-82
2023/12/30 04:02:08;;;;;;;2.97;1.60;;;8.50;55.90;;;;;;4887244;28;114668;-82
2023/12/30 04:04:36;;;;;;;2.50;1.45;;;8.50;56.00;;;;;;4887108;28;115286;-83
2023/12/30 04:07:03;;;;;;;3.85;1.88;;;8.50;56.00;;;;;;4870388;28;114551;-82
2023/12/30 04:09:31;;;;;;;2.75;1.73;;;8.50;56.00;;;;;;4886737;28;115092;-82
2023/12/30 04:11:58;;;;;;;2.80;1.60;;;8.50;56.10;;;;;;4869844;28;114783;-82
2023/12/30 04:14:26;;;;;;;2.15;1.40;;;8.50;56.10;;;;;;4870411;28;114632;-82
2023/12/30 04:16:54;;;;;;;2.92;1.40;;;8.40;56.20;;;;;;4870663;28;114725;-82
2023/12/30 04:19:27;;;;;;;3.92;1.90;;;8.50;56.10;;;;;;4869884;28;115018;-82
2023/12/30 04:21:57;;;;;;;2.75;1.60;;;8.40;56.20;;;;;;4881148;28;114690;-82
2023/12/30 04:24:27;;;;;;;4.07;1.80;;;8.40;56.20;;;;;;4848180;28;114427;-82
2023/12/30 04:26:57;;;;;;;3.92;1.60;;;8.40;56.20;;;;;;4870656;28;114716;-82
2023/12/30 04:29:26;;;;;;;2.67;1.60;;;8.40;56.20;;;;;;4869435;28;115087;-81
2023/12/30 04:31:53;;;;;;;2.60;1.63;;;8.40;56.20;;;;;;4870020;28;115129;-82
2023/12/30 04:34:23;;;;;;;3.00;1.50;;;8.40;56.20;;;;;;4871276;28;114404;-81
2023/12/30 04:36:51;;;;;;;2.88;1.30;;;8.40;56.30;;;;;;4855598;28;114666;-81
2023/12/30 04:39:18;;;;;;;2.45;1.38;;;8.40;56.20;;;;;;4854541;28;115651;-81
2023/12/30 04:41:46;;;;;;;2.55;1.40;;;8.40;56.20;;;;;;4869870;28;114609;-81
2023/12/30 04:44:13;;;;;;;3.05;1.65;;;8.40;56.20;;;;;;4855740;28;114383;-81
2023/12/30 04:46:41;;;;;;;2.63;1.40;;;8.40;56.30;;;;;;4871395;28;115386;-81
2023/12/30 04:49:11;;;;;;;2.58;1.35;;;8.40;56.30;;;;;;4869909;28;115643;-80
2023/12/30 04:51:40;;;;;;;3.22;1.27;;;8.40;56.20;;;;;;4853028;28;117030;-81
2023/12/30 04:54:07;;;;;;;3.20;1.45;;;8.40;56.30;;;;;;4869379;28;114277;-80
2023/12/30 04:56:35;;;;;;;2.50;1.40;;;8.40;56.30;;;;;;4870091;28;114650;-81
2023/12/30 04:59:02;;;;;;;6.50;1.48;;;8.40;56.40;;;;;;4884866;28;115129;-83
2023/12/30 05:01:33;;;;;;;3.03;1.60;;;8.40;56.50;;;;;;4868874;28;114954;-82
2023/12/30 05:04:01;;;;;;;3.08;2.03;;;8.40;56.40;;;;;;4869423;28;114631;-81
2023/12/30 05:06:29;;;;;;;3.47;1.67;;;8.30;56.50;;;;;;4869598;28;114389;-80
2023/12/30 05:08:58;;;;;;;3.22;1.40;;;8.40;56.50;;;;;;4853265;28;115234;-81
2023/12/30 05:11:25;;;;;;;2.55;1.40;;;8.30;56.50;;;;;;4854025;28;114753;-81
2023/12/30 05:13:53;;;;;;;3.05;1.77;;;8.40;56.60;;;;;;4886835;28;115247;-81
2023/12/30 05:16:20;;;;;;;3.50;1.80;;;8.40;56.60;;;;;;4869211;28;114958;-80
2023/12/30 05:18:50;;;;;;;3.05;1.70;;;8.40;56.60;;;;;;4885034;28;115062;-80
2023/12/30 05:21:20;;;;;;;3.80;1.85;;;8.40;56.70;;;;;;4868263;28;117723;-81
2023/12/30 05:23:50;;;;;;;3.00;1.90;;;8.40;56.70;;;;;;4868863;28;114570;-81
2023/12/30 05:26:17;;;;;;;2.88;1.50;;;8.40;56.70;;;;;;4885219;28;114768;-81
2023/12/30 05:28:47;;;;;;;4.22;1.80;;;8.40;56.70;;;;;;4853620;28;115073;-82
2023/12/30 05:31:14;;;;;;;3.05;1.50;;;8.40;56.80;;;;;;4868526;28;114705;-82
2023/12/30 05:33:41;;;;;;;4.82;1.90;;;8.40;56.90;;;;;;4885110;28;114808;-81
2023/12/30 05:36:09;;;;;;;2.75;1.75;;;8.30;56.90;;;;;;4886411;28;114809;-81
2023/12/30 05:38:36;;;;;;;3.10;1.70;;;8.40;56.90;;;;;;4885237;28;115053;-82
2023/12/30 05:41:03;;;;;;;3.00;1.60;;;8.40;56.90;;;;;;4884362;28;114717;-82
2023/12/30 05:43:31;;;;;;;3.08;1.70;;;8.40;56.90;;;;;;4885471;28;114603;-82
2023/12/30 05:45:58;;;;;;;3.42;1.90;;;8.40;57.00;;;;;;4853706;28;114724;-82
2023/12/30 05:48:28;;;;;;;3.72;1.67;;;8.30;57.00;;;;;;4884570;28;115011;-81
2023/12/30 05:50:57;;;;;;;3.08;1.73;;;8.30;57.00;;;;;;4885297;28;115068;-82
2023/12/30 05:53:24;;;;;;;2.95;1.50;;;8.40;57.10;;;;;;4886021;28;114353;-81
2023/12/30 05:55:52;;;;;;;3.78;1.70;;;8.30;57.10;;;;;;4868936;28;114494;-81
2023/12/30 05:58:21;;;;;;;2.78;1.52;;;8.40;57.10;;;;;;4852775;28;115212;-81
2023/12/30 06:00:49;;;;;;;3.40;2.00;;;8.40;57.10;;;;;;4870132;28;114624;-81
2023/12/30 06:03:17;;;;;;;3.22;1.40;;;8.40;57.20;;;;;;4863623;28;114357;-81
2023/12/30 06:05:47;;;;;;;4.55;1.58;;;8.30;57.20;;;;;;4874331;28;114821;-83
2023/12/30 06:08:14;;;;;;;4.57;2.38;;;8.40;57.20;;;;;;4888132;28;115104;-82
2023/12/30 06:10:41;;;;;;;2.65;1.45;;;8.30;57.30;;;;;;4884641;28;115310;-81
2023/12/30 06:13:09;;;;;;;3.10;1.60;;;8.40;57.30;;;;;;4869303;28;114657;-81
2023/12/30 06:15:36;;;;;;;3.55;1.73;;;8.40;57.40;;;;;;4870170;28;114608;-81
2023/12/30 06:18:04;;;;;;;3.15;1.80;;;8.30;57.40;;;;;;4885610;28;115803;-80
2023/12/30 06:20:31;;;;;;;2.83;1.50;;;8.40;57.50;;;;;;4885558;28;115104;-81
2023/12/30 06:22:58;;;;;;;2.70;1.60;;;8.30;57.50;;;;;;4886162;28;114414;-81
2023/12/30 06:25:26;;;;;;;3.83;1.70;;;8.30;57.60;;;;;;4885878;28;114707;-82
2023/12/30 06:27:53;;;;;;;4.57;1.83;;;8.40;57.50;;;;;;4884103;28;115720;-82
2023/12/30 06:30:21;;;;;;;3.67;1.88;;;8.30;57.50;;;;;;4852707;28;114798;-81
2023/12/30 06:32:52;;;;;;;2.90;1.70;;;8.40;57.60;;;;;;4869118;28;114561;-81
2023/12/30 06:35:20;;;;;;;2.85;1.50;;;8.30;57.60;;;;;;4885367;28;114697;-81
2023/12/30 06:37:51;;;;;;;4.47;2.45;;;8.40;57.70;;;;;;4867202;28;115001;-81
2023/12/30 06:40:18;;;;;;;3.20;1.75;;;8.40;57.60;;;;;;4853126;28;114746;-81
2023/12/30 06:42:47;;;;;;;3.20;1.48;;;8.40;57.60;;;;;;4886224;28;114280;-82
2023/12/30 06:45:14;;;;;;;2.63;1.52;;;8.40;57.70;;;;;;4869054;28;114504;-82
2023/12/30 06:47:42;;;;;;;2.55;1.52;;;8.50;57.60;;;;;;4863989;28;115656;-82
2023/12/30 06:50:12;;;;;;;5.13;1.67;;;8.40;57.60;;;;;;4864729;28;115574;-81
2023/12/30 06:52:39;;;;;;;3.90;1.70;;;8.50;57.60;;;;;;4849502;28;114639;-80
2023/12/30 06:55:08;;;;;;;3.25;1.50;;;8.50;57.50;;;;;;4833969;28;114497;-80
2023/12/30 06:57:49;;;;;;;3.05;1.65;;;8.50;57.50;;;;;;4850538;28;115022;-80
2023/12/30 07:00:17;;;;;;;2.92;1.52;;;8.50;57.50;;;;;;4848264;28;118398;-80
2023/12/30 07:02:44;;;;;;;2.88;1.50;;;8.50;57.50;;;;;;4834403;28;114489;-80
2023/12/30 07:05:12;;;;;;;4.20;1.88;;;8.60;57.40;;;;;;4849047;28;114588;-80
2023/12/30 07:07:39;;;;;;;3.17;2.30;;;8.50;57.50;;;;;;4848560;28;114535;-80
2023/12/30 07:10:07;;;;;;;3.42;2.00;;;8.50;57.50;;;;;;4865221;28;115311;-80
2023/12/30 07:12:34;;;;;;;3.90;2.15;;;8.50;57.50;;;;;;4833912;28;114557;-81
2023/12/30 07:15:02;;;;;;;3.38;1.88;;;8.60;57.50;;;;;;4866507;28;114548;-81
2023/12/30 07:17:30;;;;;;;3.00;1.60;;;8.60;57.50;;;;;;4848428;28;116321;-81
2023/12/30 07:19:58;;;;;;;3.13;1.50;;;8.60;57.50;;;;;;4831526;28;114591;-81
2023/12/30 07:22:26;;;;;;;3.08;1.70;;;8.60;57.40;;;;;;4823717;29;114566;-81
2023/12/30 07:24:54;;;;;;;3.42;1.73;;;8.60;57.40;;;;;;4845974;28;114595;-81
2023/12/30 07:27:23;;;;;;;4.07;2.10;;;8.70;57.40;;;;;;4863760;28;116810;-80
2023/12/30 07:29:51;;;;;;;3.30;2.05;;;8.70;57.30;;;;;;4846782;28;115807;-81
2023/12/30 07:32:20;;;;;;;3.33;2.00;;;8.70;57.30;;;;;;4853818;28;115314;-81
2023/12/30 07:34:49;;;;;;;3.03;1.75;;;8.70;57.30;;;;;;4862619;28;114502;-82
2023/12/30 07:37:22;;;;;;;2.90;1.50;;;8.70;57.30;;;;;;4863603;28;115152;-82
2023/12/30 07:39:49;;;;;;;3.80;1.80;;;8.70;57.20;;;;;;4831744;28;114927;-82
2023/12/30 07:42:16;;;;;;;2.90;1.70;;;8.70;57.20;;;;;;4864436;28;114565;-80
2023/12/30 07:44:47;;;;;;;3.70;2.20;;;8.70;57.30;;;;;;4846648;28;114569;-81
2023/12/30 07:47:14;;;;;;;3.22;1.90;;;8.70;57.30;;;;;;4879858;28;115326;-81
2023/12/30 07:49:41;;;;;;;3.38;1.60;;;8.70;57.10;;;;;;4869036;28;114848;-80
2023/12/30 07:52:09;;;;;;;3.75;1.95;;;8.70;57.10;;;;;;4860841;28;114714;-81
2023/12/30 07:54:36;;;;;;;3.65;1.92;;;8.70;57.10;;;;;;4867994;28;114727;-82
2023/12/30 07:57:04;;;;;;;4.38;2.05;;;8.70;57.20;;;;;;4849687;28;115510;-81
2023/12/30 07:59:31;;;;;;;4.05;1.77;;;8.70;57.20;;;;;;4818099;28;116460;-82
2023/12/30 08:01:58;;;;;;;4.05;2.05;;;8.70;57.30;;;;;;4818480;28;114911;-82
2023/12/30 08:04:26;;;;;;;3.45;2.10;;;8.70;57.40;;;;;;4857110;28;114495;-82
2023/12/30 08:06:54;;;;;;;4.40;2.00;;;8.70;57.40;;;;;;4848701;28;115640;-82
2023/12/30 08:09:22;;;;;;;3.97;2.30;;;8.80;57.50;;;;;;4834663;28;115121;-81
2023/12/30 08:11:51;;;;;;;3.75;1.98;;;8.80;57.50;;;;;;4865958;28;114706;-82
2023/12/30 08:14:29;;;;;;;6.10;1.90;;;8.80;57.30;;;;;;4843885;28;118442;-82
2023/12/30 08:16:58;;;;;;;3.15;1.88;;;8.90;57.20;;;;;;4869519;28;115095;-81
2023/12/30 08:19:25;;;;;;;4.25;2.05;;;8.90;57.20;;;;;;4855071;28;115584;-80
2023/12/30 08:21:52;;;;;;;3.97;2.28;;;8.90;57.30;;;;;;4871035;28;114656;-81
2023/12/30 08:24:20;;;;;;;3.97;1.80;;;9.00;57.20;;;;;;4852986;28;114853;-80
2023/12/30 08:26:47;;;;;;;3.72;1.98;;;9.00;56.90;;;;;;4851651;28;115769;-81
2023/12/30 08:29:15;;;;;;;3.10;1.70;;;9.00;56.80;;;;;;4866797;28;115287;-83
2023/12/30 08:31:46;;;;;;;3.83;2.20;;;9.00;56.70;;;;;;4871185;28;114834;-82
2023/12/30 08:34:14;;;;;;;3.40;1.90;;;9.10;56.60;;;;;;4885682;28;114394;-83
2023/12/30 08:36:45;;;;;;;3.25;1.98;;;9.10;56.40;;;;;;4866859;28;115071;-80
2023/12/30 08:39:13;;;;;;;3.42;1.80;;;9.10;56.30;;;;;;4854121;28;114679;-80
2023/12/30 08:41:40;;;;;;;4.07;2.20;;;9.20;56.30;;;;;;4870399;28;115082;-80
2023/12/30 08:44:09;;;;;;;3.47;2.22;;;9.20;56.20;;;;;;4869516;28;114828;-81
2023/12/30 08:46:36;;;;;;;3.35;1.60;;;9.20;56.20;;;;;;4870899;28;115706;-81
2023/12/30 08:49:04;;;;;;;3.22;1.90;;;9.20;55.90;;;;;;4864883;28;114726;-82
2023/12/30 08:51:36;;;;;;;3.17;1.60;;;9.20;56.00;;;;;;4864826;28;114822;-82
2023/12/30 08:54:04;;;;;;;4.25;1.85;;;9.20;56.00;;;;;;4859981;28;114774;-83
2023/12/30 08:56:34;;;;;;;3.53;1.50;;;9.20;55.80;;;;;;4851244;28;115667;-81
2023/12/30 08:59:02;;;;;;;4.25;2.20;;;9.20;55.70;;;;;;4835126;28;115307;-81
2023/12/30 09:01:30;;;;;;;2.78;1.48;;;9.20;55.60;;;;;;4850668;28;114645;-82
2023/12/30 09:03:59;;;;;;;4.28;1.90;;;9.30;55.50;;;;;;4859714;28;114266;-82
2023/12/30 09:06:27;;;;;;;3.95;1.80;;;9.30;55.50;;;;;;4832556;29;115148;-81
2023/12/30 09:08:54;;;;;;;4.10;1.85;;;9.30;55.40;;;;;;4860327;28;114596;-81
2023/12/30 09:11:23;;;;;;;3.35;2.08;;;9.30;55.30;;;;;;4869778;28;114479;-80
2023/12/30 09:13:51;;;;;;;4.18;2.20;;;9.40;55.20;;;;;;4865019;28;114560;-82
2023/12/30 09:16:19;;;;;;;5.43;1.90;;;9.40;55.20;;;;;;4867686;28;115189;-81
2023/12/30 09:18:46;;;;;;;3.10;1.70;;;9.30;55.10;;;;;;4867685;28;114734;-81
2023/12/30 09:21:16;;;;;;;3.53;1.70;;;9.30;55.00;;;;;;4868625;28;114286;-81
2023/12/30 09:24:15;;;;;;;3.65;1.60;;;9.30;54.90;;;;;;4832434;28;116720;-81
2023/12/30 09:26:43;;;;;;;3.78;1.70;;;9.30;54.90;;;;;;4868885;28;115391;-82
2023/12/30 09:29:11;;;;;;;4.85;1.73;;;9.40;54.70;;;;;;4883976;28;117041;-82
2023/12/30 09:31:38;;;;;;;2.78;1.40;;;9.40;54.70;;;;;;4867743;28;114326;-81
2023/12/30 09:34:05;;;;;;;2.40;1.38;;;9.40;54.50;;;;;;4852984;28;114551;-81
2023/12/30 09:36:33;;;;;;;4.28;1.67;;;9.50;54.20;;;;;;4868595;28;115428;-81
2023/12/30 09:39:00;;;;;;;3.67;1.60;;;9.50;54.20;;;;;;4851443;28;115114;-82
2023/12/30 09:41:27;;;;;;;4.10;1.77;;;9.50;54.20;;;;;;4867784;28;114680;-82
2023/12/30 09:43:54;;;;;;;4.43;1.65;;;9.50;53.90;;;;;;4853259;28;114322;-82
2023/12/30 09:46:22;;;;;;;4.15;1.50;;;9.60;53.80;;;;;;4851157;28;115236;-82
2023/12/30 09:48:51;;;;;;;4.57;1.58;;;9.60;53.80;;;;;;4861381;28;114590;-84
2023/12/30 09:51:18;;;;;;;3.13;1.58;;;9.60;53.80;;;;;;4866433;28;115162;-82
2023/12/30 09:53:45;;;;;;;3.88;1.70;;;9.60;53.70;;;;;;4858879;28;114846;-82
2023/12/30 09:56:13;;;;;;;4.47;1.55;;;9.60;53.60;;;;;;4858166;28;115426;-82
2023/12/30 09:58:40;;;;;;;4.15;1.80;;;9.50;53.50;;;;;;4853857;28;114738;-83
2023/12/30 10:01:08;;;;;;;3.92;1.60;;;9.60;53.60;;;;;;4839069;28;114636;-80
2023/12/30 10:03:35;;;;;;;2.67;1.63;;;9.60;53.50;;;;;;4863475;28;114535;-82
2023/12/30 10:06:04;;;;;;;5.70;2.13;;;9.70;53.50;;;;;;4850209;28;115204;-81
2023/12/30 10:08:31;;;;;;;3.80;1.92;;;9.70;53.30;;;;;;4866170;28;114649;-82
2023/12/30 10:10:59;;;;;;;4.40;2.17;;;9.80;53.20;;;;;;4840239;28;114238;-82
2023/12/30 10:13:28;;;;;;;4.28;2.30;;;9.80;53.20;;;;;;4835553;28;114495;-81
2023/12/30 10:16:02;;;;;;;5.60;2.30;;;9.80;53.20;;;;;;4834539;28;115275;-81
2023/12/30 10:18:40;;;;;;;2.15;1.13;;;9.90;53.10;;;;;;4852012;28;114444;-81
2023/12/30 10:21:45;;;;;;;4.25;1.48;;;10.00;52.20;;;;;;4846244;28;114775;-82
2023/12/30 10:24:13;;;;;;;4.47;1.73;;;10.00;52.30;;;;;;4850507;28;114389;-81
2023/12/30 10:26:40;;;;;;;4.30;1.70;;;9.90;52.40;;;;;;4824492;28;115917;-82
2023/12/30 10:29:08;;;;;;;2.97;1.50;;;9.90;52.30;;;;;;4838899;28;114600;-81
2023/12/30 10:31:35;;;;;;;3.00;1.70;;;10.00;52.30;;;;;;4860886;28;114427;-82
2023/12/30 10:34:05;;;;;;;5.75;2.72;;;9.90;52.10;;;;;;4851726;28;114462;-80
2023/12/30 10:36:36;;;;;;;2.75;1.48;;;9.90;51.90;;;;;;4834429;28;116387;-82
2023/12/30 10:39:04;;;;;;;3.70;1.50;;;9.90;52.10;;;;;;4849508;28;114739;-82
2023/12/30 10:41:31;;;;;;;3.85;1.70;;;9.90;52.00;;;;;;4834979;28;114496;-82
2023/12/30 10:43:58;;;;;;;3.72;1.70;;;9.80;52.10;;;;;;4834801;28;114581;-82
2023/12/30 10:46:26;;;;;;;4.25;1.40;;;9.70;52.00;;;;;;4849466;28;115557;-82
2023/12/30 10:49:03;;;;;;;3.50;1.90;;;9.70;52.00;;;;;;4845779;29;115258;-82
2023/12/30 10:51:34;;;;;;;4.18;1.45;;;9.70;52.10;;;;;;4835852;28;114629;-82
2023/12/30 10:54:10;;;;;;;3.75;1.48;;;9.70;52.10;;;;;;4867217;28;114688;-82
2023/12/30 10:56:44;;;;;;;2.45;1.20;;;9.70;52.10;;;;;;4836548;28;115210;-81
2023/12/30 10:59:12;;;;;;;;;;;9.60;52.20;;;;;;4835536;28;117970;-81
2023/12/30 11:01:43;;;;;;;3.00;1.23;;;9.50;52.50;;;;;;4867101;28;114491;-82
2023/12/30 11:04:12;;;;;;;4.78;1.85;;;9.50;52.40;;;;;;4849570;28;114582;-81
2023/12/30 11:06:54;;;;;;;4.55;1.63;;;9.50;52.40;;;;;;4847190;28;115071;-80
2023/12/30 11:09:23;;;;;;;4.20;2.35;;;9.60;52.50;;;;;;4872639;28;114978;-82
2023/12/30 11:11:56;;;;;;;4.63;1.80;;;9.70;52.50;;;;;;4854589;28;114365;-84
2023/12/30 11:14:24;;;;;;;3.95;1.65;;;9.70;52.30;;;;;;4855053;28;114953;-81
2023/12/30 11:16:51;;;;;;;4.70;2.00;;;9.70;52.10;;;;;;4844422;28;115831;-83
2023/12/30 11:19:32;;;;;;;4.70;1.83;;;9.80;52.10;;;;;;4869605;28;114365;-81
2023/12/30 11:22:01;;;;;;;4.93;2.17;;;9.90;51.90;;;;;;4886661;28;114404;-81
2023/12/30 11:24:29;;;;;;;6.30;3.13;;;9.90;52.00;;;;;;4853214;28;114557;-82
2023/12/30 11:26:56;;;;;;;7.45;3.13;;;9.90;52.00;;;;;;4852311;28;115396;-82
2023/12/30 11:29:27;;;;;;;5.47;2.30;;;10.00;51.90;;;;;;4852719;28;114740;-82
2023/12/30 11:31:56;;;;;;;4.15;1.90;;;10.10;51.70;;;;;;4852663;28;114261;-81
2023/12/30 11:34:24;;;;;;;4.35;1.48;;;10.00;51.70;;;;;;4854279;28;114253;-83
2023/12/30 11:36:53;;;;;;;4.07;1.70;;;10.00;51.60;;;;;;4871070;28;115635;-82
2023/12/30 11:39:27;;;;;;;3.90;2.05;;;10.00;51.60;;;;;;4815368;28;116658;-82
2023/12/30 11:41:57;;;;;;;5.40;2.13;;;9.90;51.70;;;;;;4851225;28;114378;-81
2023/12/30 11:44:27;;;;;;;3.33;1.70;;;9.90;51.70;;;;;;4848469;28;114798;-82
2023/12/30 11:46:56;;;;;;;3.65;1.45;;;9.90;51.80;;;;;;4852357;28;115145;-82
2023/12/30 11:49:28;;;;;;;4.28;1.70;;;9.90;51.80;;;;;;4833328;28;116443;-83
2023/12/30 11:52:03;;;;;;;4.30;1.65;;;9.90;51.90;;;;;;4859268;28;114814;-82
2023/12/30 11:54:32;;;;;;;2.67;1.38;;;9.90;52.00;;;;;;4887617;28;114759;-83
2023/12/30 11:57:00;;;;;;;3.95;1.70;;;10.00;51.90;;;;;;4870724;28;115549;-84
2023/12/30 11:59:27;;;;;;;4.75;1.73;;;10.00;51.90;;;;;;4850586;28;115052;-82
2023/12/30 12:02:11;;;;;;;6.45;1.45;;;10.10;51.90;;;;;;4851444;28;114740;-81
2023/12/30 12:04:40;;;;;;;3.45;1.50;;;10.10;51.80;;;;;;4836496;28;115145;-81
2023/12/30 12:07:08;;;;;;;2.72;1.45;;;10.10;51.80;;;;;;4867493;28;115214;-81
2023/12/30 12:09:37;;;;;;;3.53;1.63;;;10.10;51.70;;;;;;4850086;28;115322;-82
2023/12/30 12:12:06;;;;;;;5.43;1.70;;;10.00;51.60;;;;;;4851790;28;114790;-82
2023/12/30 12:14:34;;;;;;;4.45;1.73;;;10.00;51.70;;;;;;4851778;28;115185;-81
2023/12/30 12:17:08;;;;;;;4.72;2.08;;;9.90;51.80;;;;;;4850581;28;115689;-81
2023/12/30 12:19:39;;;;;;;3.95;1.70;;;9.90;51.70;;;;;;4867187;28;116068;-81
2023/12/30 12:22:06;;;;;;;5.28;2.78;;;9.90;51.80;;;;;;4866443;28;114597;-80
2023/12/30 12:24:34;;;;;;;4.88;1.77;;;9.90;51.80;;;;;;4862753;28;114765;-81
2023/12/30 12:27:05;;;;;;;3.75;1.40;;;9.90;51.70;;;;;;4862533;28;115183;-80
2023/12/30 12:29:53;;;;;;;4.47;1.88;;;10.00;51.50;;;;;;4867157;28;114713;-80
2023/12/30 12:32:21;;;;;;;3.78;2.13;;;10.10;51.40;;;;;;4813442;28;114719;-81
2023/12/30 12:34:49;;;;;;;3.47;1.70;;;10.00;51.60;;;;;;4851849;28;114669;-81
2023/12/30 12:37:17;;;;;;;3.63;1.67;;;10.10;51.60;;;;;;4856153;28;115877;-81
2023/12/30 12:39:45;;;;;;;4.70;1.92;;;10.10;51.40;;;;;;4882305;28;114760;-80
2023/12/30 12:42:14;;;;;;;3.25;1.60;;;10.10;51.40;;;;;;4834890;28;114399;-82
2023/12/30 12:44:56;;;;;;;4.28;1.85;;;10.20;51.30;;;;;;4853149;28;114495;-82
2023/12/30 12:47:23;;;;;;;3.40;1.52;;;10.10;51.50;;;;;;4834193;28;115264;-81
2023/12/30 12:49:51;;;;;;;4.38;1.60;;;10.20;51.60;;;;;;4849127;28;114716;-80
2023/12/30 12:52:18;;;;;;;3.70;1.77;;;10.20;51.60;;;;;;4818190;29;114634;-83